Beja, Russia
Current Conditions -  °F | °C
As of 1:30 PM on Monday 24 Nov 2014 (Local Time) from UNAA Reporting Station
Broken Clouds Broken Clouds  
Wind Chill: 20°   Ceiling: 13000
Heat Index: 32°   Visibility: 6mi
Dew Point: 19°   Wind: 20mph
Humidity: 60%   Direction: 210°SSW
Pressure: 29.53"   Gusts: NA
Location:  53.05°N, 90.91°E
Report Text: UNAA 240630Z 21009MPS 9999 SCT033CB BKN130 00/M07 Q1000 NOSIGRMK QFE728 20190055
Loading
Personal Weather Stations






























Interactive Weather Map New forecast layout! Learn more

10-Day Weather Forecast

Advertisements
Track Severe Weather on mobile